sensor_id;sensor_type;location;lat;lon;timestamp;temperature;humidity
40660;DHT22;26753;45.544;9.232;2023-11-19T00:00:27;13.70;82.30
40660;DHT22;26753;45.544;9.232;2023-11-19T00:05:19;11.20;82.00
40660;DHT22;26753;45.544;9.232;2023-11-19T00:07:45;13.50;83.80
40660;DHT22;26753;45.544;9.232;2023-11-19T00:10:12;11.80;82.30
40660;DHT22;26753;45.544;9.232;2023-11-19T00:12:40;12.40;83.60
40660;DHT22;26753;45.544;9.232;2023-11-19T00:15:06;11.00;82.80
40660;DHT22;26753;45.544;9.232;2023-11-19T00:22:33;13.30;84.90
40660;DHT22;26753;45.544;9.232;2023-11-19T00:24:59;11.80;83.70
40660;DHT22;26753;45.544;9.232;2023-11-19T00:27:25;12.20;83.60
40660;DHT22;26753;45.544;9.232;2023-11-19T00:29:51;10.00;83.20
40660;DHT22;26753;45.544;9.232;2023-11-19T00:32:17;13.10;85.40
40660;DHT22;26753;45.544;9.232;2023-11-19T00:34:45;11.10;84.90
40660;DHT22;26753;45.544;9.232;2023-11-19T00:42:05;12.60;86.80
40660;DHT22;26753;45.544;9.232;2023-11-19T00:44:31;11.10;86.70
40660;DHT22;26753;45.544;9.232;2023-11-19T00:46:57;11.00;87.60
40660;DHT22;26753;45.544;9.232;2023-11-19T00:49:22;10.30;89.00
40660;DHT22;26753;45.544;9.232;2023-11-19T00:51:48;10.50;90.00
40660;DHT22;26753;45.544;9.232;2023-11-19T00:54:14;11.70;88.40
40660;DHT22;26753;45.544;9.232;2023-11-19T00:56:40;12.70;91.30
40660;DHT22;26753;45.544;9.232;2023-11-19T01:01:33;11.90;90.80
40660;DHT22;26753;45.544;9.232;2023-11-19T01:03:59;12.70;91.00
40660;DHT22;26753;45.544;9.232;2023-11-19T01:06:31;12.50;91.20
40660;DHT22;26753;45.544;9.232;2023-11-19T01:08:57;9.60;90.60
40660;DHT22;26753;45.544;9.232;2023-11-19T01:11:24;11.40;92.30
40660;DHT22;26753;45.544;9.232;2023-11-19T01:13:50;10.40;91.70
40660;DHT22;26753;45.544;9.232;2023-11-19T01:16:17;12.40;92.70
40660;DHT22;26753;45.544;9.232;2023-11-19T01:23:36;10.10;93.10
40660;DHT22;26753;45.544;9.232;2023-11-19T01:28:31;11.30;93.50
40660;DHT22;26753;45.544;9.232;2023-11-19T01:30:56;12.00;93.50
40660;DHT22;26753;45.544;9.232;2023-11-19T01:33:22;11.20;94.40
40660;DHT22;26753;45.544;9.232;2023-11-19T01:35:49;9.70;92.90
40660;DHT22;26753;45.544;9.232;2023-11-19T01:38:14;9.40;93.20
40660;DHT22;26753;45.544;9.232;2023-11-19T01:40:40;12.60;94.80
40660;DHT22;26753;45.544;9.232;2023-11-19T01:45:33;11.00;94.40
40660;DHT22;26753;45.544;9.232;2023-11-19T01:48:02;9.90;94.40
40660;DHT22;26753;45.544;9.232;2023-11-19T01:55:25;10.20;93.70
40660;DHT22;26753;45.544;9.232;2023-11-19T02:00:21;11.10;94.40
40660;DHT22;26753;45.544;9.232;2023-11-19T02:02:48;10.50;93.20
40660;DHT22;26753;45.544;9.232;2023-11-19T02:10:06;11.90;94.90
40660;DHT22;26753;45.544;9.232;2023-11-19T02:12:38;7.70;93.90
40660;DHT22;26753;45.544;9.232;2023-11-19T02:20:06;10.50;96.90
40660;DHT22;26753;45.544;9.232;2023-11-19T02:25:20;10.60;96.20
40660;DHT22;26753;45.544;9.232;2023-11-19T02:27:54;11.40;96.50
40660;DHT22;26753;45.544;9.232;2023-11-19T02:32:55;11.80;98.20
40660;DHT22;26753;45.544;9.232;2023-11-19T02:35:26;12.50;99.00
40660;DHT22;26753;45.544;9.232;2023-11-19T02:37:53;8.10;98.50
40660;DHT22;26753;45.544;9.232;2023-11-19T02:40:19;10.40;98.80
40660;DHT22;26753;45.544;9.232;2023-11-19T02:42:45;11.10;99.90
40660;DHT22;26753;45.544;9.232;2023-11-19T02:45:11;9.80;99.80
40660;DHT22;26753;45.544;9.232;2023-11-19T02:47:43;11.10;99.90
40660;DHT22;26753;45.544;9.232;2023-11-19T02:52:42;11.30;99.90
40660;DHT22;26753;45.544;9.232;2023-11-19T02:55:11;11.20;99.90
40660;DHT22;26753;45.544;9.232;2023-11-19T02:57:40;11.40;99.90
40660;DHT22;26753;45.544;9.232;2023-11-19T03:02:43;12.00;99.90
40660;DHT22;26753;45.544;9.232;2023-11-19T03:05:12;11.50;99.90
40660;DHT22;26753;45.544;9.232;2023-11-19T03:10:10;9.60;99.90
40660;DHT22;26753;45.544;9.232;2023-11-19T03:15:11;9.20;99.90
40660;DHT22;26753;45.544;9.232;2023-11-19T03:22:41;10.00;99.90
40660;DHT22;26753;45.544;9.232;2023-11-19T03:32:35;9.70;99.90
40660;DHT22;26753;45.544;9.232;2023-11-19T03:37:27;10.50;99.90
40660;DHT22;26753;45.544;9.232;2023-11-19T03:42:26;9.00;99.90
40660;DHT22;26753;45.544;9.232;2023-11-19T03:54:44;11.50;99.90
40660;DHT22;26753;45.544;9.232;2023-11-19T04:09:23;6.60;99.90
40660;DHT22;26753;45.544;9.232;2023-11-19T04:26:28;8.90;99.90
40660;DHT22;26753;45.544;9.232;2023-11-19T04:28:54;9.50;99.90
40660;DHT22;26753;45.544;9.232;2023-11-19T04:33:45;10.00;99.90
40660;DHT22;26753;45.544;9.232;2023-11-19T04:36:12;9.30;99.90
40660;DHT22;26753;45.544;9.232;2023-11-19T04:41:06;7.90;99.90
40660;DHT22;26753;45.544;9.232;2023-11-19T04:43:32;8.40;99.90
40660;DHT22;26753;45.544;9.232;2023-11-19T04:46:00;11.50;99.90
40660;DHT22;26753;45.544;9.232;2023-11-19T04:58:13;12.70;99.90
40660;DHT22;26753;45.544;9.232;2023-11-19T05:00:38;10.60;99.90
40660;DHT22;26753;45.544;9.232;2023-11-19T05:10:26;11.90;99.90
40660;DHT22;26753;45.544;9.232;2023-11-19T05:15:27;9.80;99.90
40660;DHT22;26753;45.544;9.232;2023-11-19T05:30:06;11.10;99.90
40660;DHT22;26753;45.544;9.232;2023-11-19T05:42:22;10.80;99.90
40660;DHT22;26753;45.544;9.232;2023-11-19T05:54:33;8.20;99.90
40660;DHT22;26753;45.544;9.232;2023-11-19T06:04:23;8.50;99.90
40660;DHT22;26753;45.544;9.232;2023-11-19T06:14:10;9.40;99.90
40660;DHT22;26753;45.544;9.232;2023-11-19T06:16:36;6.30;99.90
40660;DHT22;26753;45.544;9.232;2023-11-19T06:31:13;7.60;99.90
40660;DHT22;26753;45.544;9.232;2023-11-19T06:55:43;12.30;99.90
40660;DHT22;26753;45.544;9.232;2023-11-19T07:00:35;11.70;99.90
40660;DHT22;26753;45.544;9.232;2023-11-19T07:17:41;10.20;99.90
40660;DHT22;26753;45.544;9.232;2023-11-19T07:32:17;9.00;99.90
40660;DHT22;26753;45.544;9.232;2023-11-19T07:37:12;8.60;99.90
40660;DHT22;26753;45.544;9.232;2023-11-19T07:44:34;9.60;99.90
40660;DHT22;26753;45.544;9.232;2023-11-19T07:49:29;9.80;99.90
40660;DHT22;26753;45.544;9.232;2023-11-19T07:51:56;10.70;99.90
40660;DHT22;26753;45.544;9.232;2023-11-19T07:54:22;11.00;99.90
40660;DHT22;26753;45.544;9.232;2023-11-19T08:01:44;10.80;99.90
40660;DHT22;26753;45.544;9.232;2023-11-19T08:09:02;12.70;99.90
40660;DHT22;26753;45.544;9.232;2023-11-19T08:13:58;10.20;99.90
40660;DHT22;26753;45.544;9.232;2023-11-19T08:21:19;11.60;99.80
40660;DHT22;26753;45.544;9.232;2023-11-19T08:23:46;13.90;99.80
40660;DHT22;26753;45.544;9.232;2023-11-19T08:26:14;11.90;98.30
40660;DHT22;26753;45.544;9.232;2023-11-19T08:28:40;14.00;97.80
40660;DHT22;26753;45.544;9.232;2023-11-19T08:33:40;12.60;96.60
40660;DHT22;26753;45.544;9.232;2023-11-19T08:36:06;14.10;96.60
40660;DHT22;26753;45.544;9.232;2023-11-19T08:38:32;11.10;95.10
40660;DHT22;26753;45.544;9.232;2023-11-19T08:40:57;12.70;95.30
40660;DHT22;26753;45.544;9.232;2023-11-19T08:43:28;13.90;94.60
40660;DHT22;26753;45.544;9.232;2023-11-19T08:45:54;14.00;94.70
40660;DHT22;26753;45.544;9.232;2023-11-19T08:48:20;13.90;94.70
40660;DHT22;26753;45.544;9.232;2023-11-19T08:50:55;16.20;94.70
40660;DHT22;26753;45.544;9.232;2023-11-19T08:53:27;14.80;93.90
40660;DHT22;26753;45.544;9.232;2023-11-19T08:55:52;12.20;93.40
40660;DHT22;26753;45.544;9.232;2023-11-19T08:58:21;14.50;92.60
40660;DHT22;26753;45.544;9.232;2023-11-19T09:00:47;15.00;93.30
40660;DHT22;26753;45.544;9.232;2023-11-19T09:03:19;14.80;92.70
40660;DHT22;26753;45.544;9.232;2023-11-19T09:05:49;14.20;91.90
40660;DHT22;26753;45.544;9.232;2023-11-19T09:08:14;14.60;92.20
40660;DHT22;26753;45.544;9.232;2023-11-19T09:10:40;15.60;91.40
40660;DHT22;26753;45.544;9.232;2023-11-19T09:13:06;14.90;91.00
40660;DHT22;26753;45.544;9.232;2023-11-19T09:15:31;15.10;91.30
40660;DHT22;26753;45.544;9.232;2023-11-19T09:17:57;15.20;90.20
40660;DHT22;26753;45.544;9.232;2023-11-19T09:20:23;15.40;87.40
40660;DHT22;26753;45.544;9.232;2023-11-19T09:22:49;15.40;88.40
40660;DHT22;26753;45.544;9.232;2023-11-19T09:25:18;14.90;85.00
40660;DHT22;26753;45.544;9.232;2023-11-19T09:27:44;15.60;86.70
40660;DHT22;26753;45.544;9.232;2023-11-19T09:30:10;16.20;86.90
40660;DHT22;26753;45.544;9.232;2023-11-19T09:32:36;15.90;85.50
40660;DHT22;26753;45.544;9.232;2023-11-19T09:35:03;16.00;84.00
40660;DHT22;26753;45.544;9.232;2023-11-19T09:37:29;15.60;80.30
40660;DHT22;26753;45.544;9.232;2023-11-19T09:39:55;16.20;82.50
40660;DHT22;26753;45.544;9.232;2023-11-19T09:42:20;16.40;82.10
40660;DHT22;26753;45.544;9.232;2023-11-19T09:44:47;16.60;81.60
40660;DHT22;26753;45.544;9.232;2023-11-19T09:47:14;16.70;80.40
40660;DHT22;26753;45.544;9.232;2023-11-19T09:49:40;16.70;79.50
40660;DHT22;26753;45.544;9.232;2023-11-19T09:52:07;16.70;76.80
40660;DHT22;26753;45.544;9.232;2023-11-19T09:54:33;16.80;78.50
40660;DHT22;26753;45.544;9.232;2023-11-19T09:56:59;16.80;77.40
40660;DHT22;26753;45.544;9.232;2023-11-19T09:59:30;16.90;76.70
40660;DHT22;26753;45.544;9.232;2023-11-19T10:01:57;17.10;76.50
40660;DHT22;26753;45.544;9.232;2023-11-19T10:04:23;17.20;76.80
40660;DHT22;26753;45.544;9.232;2023-11-19T10:06:55;17.40;76.60
40660;DHT22;26753;45.544;9.232;2023-11-19T10:09:20;17.40;76.40
40660;DHT22;26753;45.544;9.232;2023-11-19T10:11:46;17.50;76.10
40660;DHT22;26753;45.544;9.232;2023-11-19T10:14:13;17.60;76.50
40660;DHT22;26753;45.544;9.232;2023-11-19T10:16:40;17.80;75.90
40660;DHT22;26753;45.544;9.232;2023-11-19T10:19:07;17.80;75.60
40660;DHT22;26753;45.544;9.232;2023-11-19T10:21:33;17.90;75.90
40660;DHT22;26753;45.544;9.232;2023-11-19T10:23:59;18.00;74.90
40660;DHT22;26753;45.544;9.232;2023-11-19T10:26:26;18.00;75.20
40660;DHT22;26753;45.544;9.232;2023-11-19T10:28:52;18.00;74.70
40660;DHT22;26753;45.544;9.232;2023-11-19T10:31:19;18.00;74.40
40660;DHT22;26753;45.544;9.232;2023-11-19T10:33:50;17.90;74.50
40660;DHT22;26753;45.544;9.232;2023-11-19T10:36:17;17.90;74.40
40660;DHT22;26753;45.544;9.232;2023-11-19T10:38:55;18.00;73.90
40660;DHT22;26753;45.544;9.232;2023-11-19T10:41:30;17.90;73.40
40660;DHT22;26753;45.544;9.232;2023-11-19T10:44:04;17.90;73.20
40660;DHT22;26753;45.544;9.232;2023-11-19T10:46:41;17.70;73.30
40660;DHT22;26753;45.544;9.232;2023-11-19T10:49:09;17.60;73.80
40660;DHT22;26753;45.544;9.232;2023-11-19T10:51:39;17.50;73.60
40660;DHT22;26753;45.544;9.232;2023-11-19T10:54:09;17.60;73.80
40660;DHT22;26753;45.544;9.232;2023-11-19T10:56:35;17.60;73.60
40660;DHT22;26753;45.544;9.232;2023-11-19T10:59:01;17.60;73.70
40660;DHT22;26753;45.544;9.232;2023-11-19T11:01:43;17.60;74.00
40660;DHT22;26753;45.544;9.232;2023-11-19T11:04:13;17.50;74.40
40660;DHT22;26753;45.544;9.232;2023-11-19T11:06:41;17.40;74.80
40660;DHT22;26753;45.544;9.232;2023-11-19T11:09:07;17.50;75.00
40660;DHT22;26753;45.544;9.232;2023-11-19T11:11:39;17.50;75.10
40660;DHT22;26753;45.544;9.232;2023-11-19T11:14:06;17.50;75.70
40660;DHT22;26753;45.544;9.232;2023-11-19T11:16:36;17.50;76.00
40660;DHT22;26753;45.544;9.232;2023-11-19T11:19:03;17.40;76.30
40660;DHT22;26753;45.544;9.232;2023-11-19T11:21:29;17.60;76.50
40660;DHT22;26753;45.544;9.232;2023-11-19T11:32:33;18.00;75.80
40660;DHT22;26753;45.544;9.232;2023-11-19T11:37:49;18.10;76.00
40660;DHT22;26753;45.544;9.232;2023-11-19T11:40:18;18.30;76.40
40660;DHT22;26753;45.544;9.232;2023-11-19T11:42:47;18.50;76.40
40660;DHT22;26753;45.544;9.232;2023-11-19T11:45:14;18.50;76.20
40660;DHT22;26753;45.544;9.232;2023-11-19T11:50:13;18.70;75.90
40660;DHT22;26753;45.544;9.232;2023-11-19T11:58:08;18.90;75.00
40660;DHT22;26753;45.544;9.232;2023-11-19T12:00:39;19.00;75.00
40660;DHT22;26753;45.544;9.232;2023-11-19T12:03:06;19.50;75.90
40660;DHT22;26753;45.544;9.232;2023-11-19T12:05:32;20.20;75.10
40660;DHT22;26753;45.544;9.232;2023-11-19T12:08:06;23.00;71.10
40660;DHT22;26753;45.544;9.232;2023-11-19T12:10:47;25.50;65.60
40660;DHT22;26753;45.544;9.232;2023-11-19T12:13:17;23.80;66.70
40660;DHT22;26753;45.544;9.232;2023-11-19T12:18:27;22.10;68.70
40660;DHT22;26753;45.544;9.232;2023-11-19T12:20:54;21.80;69.10
40660;DHT22;26753;45.544;9.232;2023-11-19T12:23:19;24.50;66.80
40660;DHT22;26753;45.544;9.232;2023-11-19T12:25:46;30.50;60.90
40660;DHT22;26753;45.544;9.232;2023-11-19T12:28:13;34.50;54.80
40660;DHT22;26753;45.544;9.232;2023-11-19T12:30:39;36.40;50.70
40660;DHT22;26753;45.544;9.232;2023-11-19T12:33:08;37.10;47.60
40660;DHT22;26753;45.544;9.232;2023-11-19T12:35:41;38.30;45.70
40660;DHT22;26753;45.544;9.232;2023-11-19T12:38:08;39.30;43.40
40660;DHT22;26753;45.544;9.232;2023-11-19T12:40:34;40.10;43.00
40660;DHT22;26753;45.544;9.232;2023-11-19T12:43:00;40.20;41.80
40660;DHT22;26753;45.544;9.232;2023-11-19T12:45:37;41.10;41.00
40660;DHT22;26753;45.544;9.232;2023-11-19T12:48:08;42.30;39.60
40660;DHT22;26753;45.544;9.232;2023-11-19T12:51:03;42.90;39.00
40660;DHT22;26753;45.544;9.232;2023-11-19T12:53:50;43.70;37.50
40660;DHT22;26753;45.544;9.232;2023-11-19T12:56:31;44.10;36.60
40660;DHT22;26753;45.544;9.232;2023-11-19T12:59:14;44.40;36.90
40660;DHT22;26753;45.544;9.232;2023-11-19T13:01:39;45.00;36.00
40660;DHT22;26753;45.544;9.232;2023-11-19T13:04:17;44.60;35.60
40660;DHT22;26753;45.544;9.232;2023-11-19T13:06:46;44.30;35.00
40660;DHT22;26753;45.544;9.232;2023-11-19T13:09:25;43.70;35.40
40660;DHT22;26753;45.544;9.232;2023-11-19T13:11:52;44.50;35.00
40660;DHT22;26753;45.544;9.232;2023-11-19T13:14:18;44.00;35.00
40660;DHT22;26753;45.544;9.232;2023-11-19T13:16:48;44.00;35.10
40660;DHT22;26753;45.544;9.232;2023-11-19T13:19:15;43.60;34.90
40660;DHT22;26753;45.544;9.232;2023-11-19T13:21:45;43.30;34.80
40660;DHT22;26753;45.544;9.232;2023-11-19T13:24:13;42.60;34.90
40660;DHT22;26753;45.544;9.232;2023-11-19T13:26:39;43.20;34.90
40660;DHT22;26753;45.544;9.232;2023-11-19T13:29:05;44.20;34.90
40660;DHT22;26753;45.544;9.232;2023-11-19T13:31:30;44.90;34.70
40660;DHT22;26753;45.544;9.232;2023-11-19T13:33:59;45.70;34.50
40660;DHT22;26753;45.544;9.232;2023-11-19T13:36:25;45.70;34.10
40660;DHT22;26753;45.544;9.232;2023-11-19T13:38:51;45.60;33.90
40660;DHT22;26753;45.544;9.232;2023-11-19T13:41:17;44.70;33.90
40660;DHT22;26753;45.544;9.232;2023-11-19T13:43:43;45.10;33.60
40660;DHT22;26753;45.544;9.232;2023-11-19T13:46:09;45.80;33.70
40660;DHT22;26753;45.544;9.232;2023-11-19T13:48:38;45.70;33.40
40660;DHT22;26753;45.544;9.232;2023-11-19T13:51:03;45.30;32.90
40660;DHT22;26753;45.544;9.232;2023-11-19T13:53:29;46.10;33.40
40660;DHT22;26753;45.544;9.232;2023-11-19T13:55:55;46.60;33.30
40660;DHT22;26753;45.544;9.232;2023-11-19T13:58:21;46.20;33.10
40660;DHT22;26753;45.544;9.232;2023-11-19T14:00:46;45.80;33.50
40660;DHT22;26753;45.544;9.232;2023-11-19T14:03:12;46.30;33.30
40660;DHT22;26753;45.544;9.232;2023-11-19T14:05:39;46.00;33.20
40660;DHT22;26753;45.544;9.232;2023-11-19T14:08:06;46.50;33.10
40660;DHT22;26753;45.544;9.232;2023-11-19T14:10:39;45.30;32.50
40660;DHT22;26753;45.544;9.232;2023-11-19T14:13:06;43.60;33.20
40660;DHT22;26753;45.544;9.232;2023-11-19T14:15:32;42.50;33.70
40660;DHT22;26753;45.544;9.232;2023-11-19T14:18:00;42.60;34.20
40660;DHT22;26753;45.544;9.232;2023-11-19T14:20:26;42.40;33.90
40660;DHT22;26753;45.544;9.232;2023-11-19T14:22:52;42.90;34.10
40660;DHT22;26753;45.544;9.232;2023-11-19T14:25:18;42.60;34.10
40660;DHT22;26753;45.544;9.232;2023-11-19T14:27:45;43.30;34.20
40660;DHT22;26753;45.544;9.232;2023-11-19T14:30:19;43.80;34.00
40660;DHT22;26753;45.544;9.232;2023-11-19T14:32:45;43.10;34.10
40660;DHT22;26753;45.544;9.232;2023-11-19T14:35:12;43.10;34.00
40660;DHT22;26753;45.544;9.232;2023-11-19T14:37:38;42.00;34.20
40660;DHT22;26753;45.544;9.232;2023-11-19T14:40:03;40.90;34.60
40660;DHT22;26753;45.544;9.232;2023-11-19T14:42:31;40.60;35.10
40660;DHT22;26753;45.544;9.232;2023-11-19T14:44:57;40.50;35.20
40660;DHT22;26753;45.544;9.232;2023-11-19T14:47:23;41.10;35.00
40660;DHT22;26753;45.544;9.232;2023-11-19T14:49:49;41.40;34.90
40660;DHT22;26753;45.544;9.232;2023-11-19T14:52:15;41.10;34.70
40660;DHT22;26753;45.544;9.232;2023-11-19T14:54:41;40.60;34.90
40660;DHT22;26753;45.544;9.232;2023-11-19T14:57:07;39.60;35.00
40660;DHT22;26753;45.544;9.232;2023-11-19T14:59:36;35.40;36.10
40660;DHT22;26753;45.544;9.232;2023-11-19T15:02:04;32.00;38.50
40660;DHT22;26753;45.544;9.232;2023-11-19T15:04:33;30.00;40.70
40660;DHT22;26753;45.544;9.232;2023-11-19T15:07:00;28.50;42.20
40660;DHT22;26753;45.544;9.232;2023-11-19T15:09:28;26.80;43.20
40660;DHT22;26753;45.544;9.232;2023-11-19T15:11:54;25.50;45.60
40660;DHT22;26753;45.544;9.232;2023-11-19T15:14:20;24.40;47.20
40660;DHT22;26753;45.544;9.232;2023-11-19T15:16:47;23.90;48.20
40660;DHT22;26753;45.544;9.232;2023-11-19T15:19:13;23.50;49.30
40660;DHT22;26753;45.544;9.232;2023-11-19T15:21:40;22.90;50.10
40660;DHT22;26753;45.544;9.232;2023-11-19T15:24:06;22.50;51.10
40660;DHT22;26753;45.544;9.232;2023-11-19T15:26:33;21.90;52.30
40660;DHT22;26753;45.544;9.232;2023-11-19T15:28:59;21.90;52.60
40660;DHT22;26753;45.544;9.232;2023-11-19T15:31:25;21.80;53.30
40660;DHT22;26753;45.544;9.232;2023-11-19T15:33:51;21.70;53.70
40660;DHT22;26753;45.544;9.232;2023-11-19T15:36:17;21.00;55.00
40660;DHT22;26753;45.544;9.232;2023-11-19T15:38:44;20.80;55.60
40660;DHT22;26753;45.544;9.232;2023-11-19T15:41:12;20.70;56.40
40660;DHT22;26753;45.544;9.232;2023-11-19T15:43:38;20.60;56.90
40660;DHT22;26753;45.544;9.232;2023-11-19T15:46:08;20.40;57.20
40660;DHT22;26753;45.544;9.232;2023-11-19T15:48:39;20.40;57.80
40660;DHT22;26753;45.544;9.232;2023-11-19T15:51:05;20.00;58.30
40660;DHT22;26753;45.544;9.232;2023-11-19T15:53:31;19.80;59.20
40660;DHT22;26753;45.544;9.232;2023-11-19T15:55:58;19.70;59.70
40660;DHT22;26753;45.544;9.232;2023-11-19T15:58:24;19.40;60.20
40660;DHT22;26753;45.544;9.232;2023-11-19T16:00:49;19.20;60.80
40660;DHT22;26753;45.544;9.232;2023-11-19T16:03:15;19.00;61.20
40660;DHT22;26753;45.544;9.232;2023-11-19T16:05:42;18.70;62.00
40660;DHT22;26753;45.544;9.232;2023-11-19T16:08:07;18.60;62.20
40660;DHT22;26753;45.544;9.232;2023-11-19T16:10:36;18.80;62.00
40660;DHT22;26753;45.544;9.232;2023-11-19T16:13:06;18.90;62.00
40660;DHT22;26753;45.544;9.232;2023-11-19T16:15:32;18.80;62.60
40660;DHT22;26753;45.544;9.232;2023-11-19T16:17:59;18.70;62.70
40660;DHT22;26753;45.544;9.232;2023-11-19T16:20:26;18.60;62.70
40660;DHT22;26753;45.544;9.232;2023-11-19T16:22:51;18.70;63.10
40660;DHT22;26753;45.544;9.232;2023-11-19T16:25:17;18.60;63.70
40660;DHT22;26753;45.544;9.232;2023-11-19T16:27:44;18.40;64.00
40660;DHT22;26753;45.544;9.232;2023-11-19T16:30:10;18.30;64.50
40660;DHT22;26753;45.544;9.232;2023-11-19T16:32:53;18.30;64.30
40660;DHT22;26753;45.544;9.232;2023-11-19T16:35:19;18.30;65.20
40660;DHT22;26753;45.544;9.232;2023-11-19T16:37:45;18.00;65.40
40660;DHT22;26753;45.544;9.232;2023-11-19T16:40:12;17.70;65.90
40660;DHT22;26753;45.544;9.232;2023-11-19T16:42:38;17.50;66.20
40660;DHT22;26753;45.544;9.232;2023-11-19T16:45:07;17.40;66.50
40660;DHT22;26753;45.544;9.232;2023-11-19T16:47:36;17.30;66.90
40660;DHT22;26753;45.544;9.232;2023-11-19T16:50:02;17.30;66.90
40660;DHT22;26753;45.544;9.232;2023-11-19T16:52:29;17.30;66.80
40660;DHT22;26753;45.544;9.232;2023-11-19T16:54:57;17.30;67.00
40660;DHT22;26753;45.544;9.232;2023-11-19T16:57:23;17.40;67.20
40660;DHT22;26753;45.544;9.232;2023-11-19T16:59:49;17.20;67.10
40660;DHT22;26753;45.544;9.232;2023-11-19T17:02:22;17.20;67.70
40660;DHT22;26753;45.544;9.232;2023-11-19T17:04:49;16.90;68.20
40660;DHT22;26753;45.544;9.232;2023-11-19T17:07:14;16.80;68.70
40660;DHT22;26753;45.544;9.232;2023-11-19T17:09:40;16.70;69.40
40660;DHT22;26753;45.544;9.232;2023-11-19T17:12:07;16.60;69.70
40660;DHT22;26753;45.544;9.232;2023-11-19T17:14:33;16.60;70.00
40660;DHT22;26753;45.544;9.232;2023-11-19T17:17:02;16.80;70.40
40660;DHT22;26753;45.544;9.232;2023-11-19T17:19:28;16.60;70.80
40660;DHT22;26753;45.544;9.232;2023-11-19T17:21:54;16.60;70.80
40660;DHT22;26753;45.544;9.232;2023-11-19T17:24:19;16.50;71.40
40660;DHT22;26753;45.544;9.232;2023-11-19T17:26:45;16.40;72.40
40660;DHT22;26753;45.544;9.232;2023-11-19T17:29:11;16.30;73.10
40660;DHT22;26753;45.544;9.232;2023-11-19T17:31:37;16.10;73.90
40660;DHT22;26753;45.544;9.232;2023-11-19T17:34:03;16.00;74.60
40660;DHT22;26753;45.544;9.232;2023-11-19T17:36:29;15.90;75.30
40660;DHT22;26753;45.544;9.232;2023-11-19T17:38:56;15.40;76.90
40660;DHT22;26753;45.544;9.232;2023-11-19T17:41:22;15.60;78.10
40660;DHT22;26753;45.544;9.232;2023-11-19T17:43:47;15.50;78.00
40660;DHT22;26753;45.544;9.232;2023-11-19T17:46:14;15.50;78.70
40660;DHT22;26753;45.544;9.232;2023-11-19T17:48:40;15.60;78.70
40660;DHT22;26753;45.544;9.232;2023-11-19T17:51:06;15.60;79.40
40660;DHT22;26753;45.544;9.232;2023-11-19T17:53:32;15.50;80.20
40660;DHT22;26753;45.544;9.232;2023-11-19T17:56:01;14.70;80.00
40660;DHT22;26753;45.544;9.232;2023-11-19T17:58:31;15.50;81.20
40660;DHT22;26753;45.544;9.232;2023-11-19T18:00:57;15.50;81.80
40660;DHT22;26753;45.544;9.232;2023-11-19T18:03:25;15.40;82.30
40660;DHT22;26753;45.544;9.232;2023-11-19T18:05:51;15.40;83.40
40660;DHT22;26753;45.544;9.232;2023-11-19T18:08:20;14.90;85.20
40660;DHT22;26753;45.544;9.232;2023-11-19T18:10:49;15.80;85.60
40660;DHT22;26753;45.544;9.232;2023-11-19T18:13:15;14.90;86.50
40660;DHT22;26753;45.544;9.232;2023-11-19T18:15:42;15.00;87.00
40660;DHT22;26753;45.544;9.232;2023-11-19T18:18:07;14.90;87.90
40660;DHT22;26753;45.544;9.232;2023-11-19T18:20:34;15.00;88.10
40660;DHT22;26753;45.544;9.232;2023-11-19T18:23:01;14.90;89.00
40660;DHT22;26753;45.544;9.232;2023-11-19T18:25:26;14.50;90.40
40660;DHT22;26753;45.544;9.232;2023-11-19T18:27:52;14.30;90.10
40660;DHT22;26753;45.544;9.232;2023-11-19T18:30:18;14.80;90.50
40660;DHT22;26753;45.544;9.232;2023-11-19T18:32:45;14.70;91.00
40660;DHT22;26753;45.544;9.232;2023-11-19T18:35:11;14.80;90.90
40660;DHT22;26753;45.544;9.232;2023-11-19T18:37:40;13.60;91.90
40660;DHT22;26753;45.544;9.232;2023-11-19T18:40:07;14.60;92.50
40660;DHT22;26753;45.544;9.232;2023-11-19T18:42:35;14.70;93.00
40660;DHT22;26753;45.544;9.232;2023-11-19T18:45:02;14.50;93.50
40660;DHT22;26753;45.544;9.232;2023-11-19T18:47:28;14.90;93.40
40660;DHT22;26753;45.544;9.232;2023-11-19T18:49:54;14.50;94.20
40660;DHT22;26753;45.544;9.232;2023-11-19T18:52:20;14.10;94.20
40660;DHT22;26753;45.544;9.232;2023-11-19T18:54:45;14.50;94.60
40660;DHT22;26753;45.544;9.232;2023-11-19T18:57:12;14.30;95.70
40660;DHT22;26753;45.544;9.232;2023-11-19T18:59:37;14.40;95.20
40660;DHT22;26753;45.544;9.232;2023-11-19T19:02:03;15.60;96.10
40660;DHT22;26753;45.544;9.232;2023-11-19T19:04:29;14.40;95.60
40660;DHT22;26753;45.544;9.232;2023-11-19T19:06:56;13.50;97.00
40660;DHT22;26753;45.544;9.232;2023-11-19T19:11:48;12.60;99.10
40660;DHT22;26753;45.544;9.232;2023-11-19T19:14:16;15.90;98.90
40660;DHT22;26753;45.544;9.232;2023-11-19T19:16:42;12.70;98.60
40660;DHT22;26753;45.544;9.232;2023-11-19T19:19:08;15.20;99.90
40660;DHT22;26753;45.544;9.232;2023-11-19T19:21:34;14.60;99.90
40660;DHT22;26753;45.544;9.232;2023-11-19T19:24:00;13.90;99.90
40660;DHT22;26753;45.544;9.232;2023-11-19T19:26:29;12.90;99.90
40660;DHT22;26753;45.544;9.232;2023-11-19T19:28:55;14.00;99.90
40660;DHT22;26753;45.544;9.232;2023-11-19T19:31:21;14.60;99.90
40660;DHT22;26753;45.544;9.232;2023-11-19T19:33:47;15.10;99.90
40660;DHT22;26753;45.544;9.232;2023-11-19T19:36:18;13.60;99.90
40660;DHT22;26753;45.544;9.232;2023-11-19T19:38:43;12.90;99.90
40660;DHT22;26753;45.544;9.232;2023-11-19T19:41:09;13.90;99.90
40660;DHT22;26753;45.544;9.232;2023-11-19T19:43:35;13.80;99.90
40660;DHT22;26753;45.544;9.232;2023-11-19T19:46:01;13.50;99.90
40660;DHT22;26753;45.544;9.232;2023-11-19T19:48:26;14.10;99.90
40660;DHT22;26753;45.544;9.232;2023-11-19T19:50:52;13.50;99.90
40660;DHT22;26753;45.544;9.232;2023-11-19T19:53:18;13.40;99.90
40660;DHT22;26753;45.544;9.232;2023-11-19T19:55:43;13.10;99.90
40660;DHT22;26753;45.544;9.232;2023-11-19T19:58:09;13.20;99.90
40660;DHT22;26753;45.544;9.232;2023-11-19T20:00:36;14.10;99.90
40660;DHT22;26753;45.544;9.232;2023-11-19T20:03:02;13.30;99.90
40660;DHT22;26753;45.544;9.232;2023-11-19T20:05:28;13.80;99.90
40660;DHT22;26753;45.544;9.232;2023-11-19T20:07:54;13.20;99.90
40660;DHT22;26753;45.544;9.232;2023-11-19T20:10:23;13.90;99.90
40660;DHT22;26753;45.544;9.232;2023-11-19T20:12:49;12.60;99.90
40660;DHT22;26753;45.544;9.232;2023-11-19T20:15:15;13.10;99.90
40660;DHT22;26753;45.544;9.232;2023-11-19T20:17:45;11.40;99.90
40660;DHT22;26753;45.544;9.232;2023-11-19T20:20:11;13.20;99.90
40660;DHT22;26753;45.544;9.232;2023-11-19T20:22:37;15.90;99.90
40660;DHT22;26753;45.544;9.232;2023-11-19T20:25:04;14.80;99.90
40660;DHT22;26753;45.544;9.232;2023-11-19T20:27:31;13.10;99.90
40660;DHT22;26753;45.544;9.232;2023-11-19T20:29:57;13.00;99.90
40660;DHT22;26753;45.544;9.232;2023-11-19T20:32:23;12.80;99.90